This is the latest recevied weather packets stored in our database for station/object DB0TGO-13. If no packets are shown the sender has not sent any weather packets the latest 10 day(s).
| Time | Temp. | Humidity | Pressure | Rain* | Wind** | Luminosity | Snow |
|---|---|---|---|---|---|---|---|
| 1777725003 | 24.44° C | 29% | 1015 hPa | - | - | - | - |
| 1777724102 | 23.89° C | 29% | 1015.4 hPa | - | - | - | - |
| 1777723202 | 23.89° C | 29% | 1015.4 hPa | - | - | - | - |
| 1777722303 | 23.89° C | 30% | 1015.8 hPa | - | - | - | - |
| 1777721402 | 23.89° C | 30% | 1015.8 hPa | - | - | - | - |
| 1777720502 | 22.78° C | 30% | 1016.3 hPa | - | - | - | - |
| 1777719602 | 22.78° C | 30% | 1016.3 hPa | - | - | - | - |
| 1777718703 | 22.22° C | 33% | 1016.4 hPa | - | - | - | - |
| 1777716902 | 22.22° C | 34% | 1016.8 hPa | - | - | - | - |
| 1777716003 | 22.22° C | 34% | 1016.8 hPa | - | - | - | - |
| 1777715103 | 21.11° C | 38% | 1017.1 hPa | - | - | - | - |
| 1777714202 | 21.11° C | 38% | 1017.1 hPa | - | - | - | - |
| 1777713302 | 20.56° C | 37% | 1017.3 hPa | - | - | - | - |
| 1777712403 | 20.56° C | 37% | 1017.3 hPa | - | - | - | - |
| 1777711502 | 20° C | 39% | 1017.5 hPa | - | - | - | - |
| 1777710603 | 20° C | 39% | 1017.5 hPa | - | - | - | - |
| 1777709703 | 18.89° C | 39% | 1017.5 hPa | - | - | - | - |
| 1777708802 | 18.89° C | 39% | 1017.5 hPa | - | - | - | - |
| 1777707902 | 17.78° C | 47% | 1017.6 hPa | - | - | - | - |
| 1777707003 | 17.78° C | 47% | 1017.6 hPa | - | - | - | - |
| 1777706102 | 15.56° C | 52% | 1017.9 hPa | - | - | - | - |
| 1777705202 | 15.56° C | 52% | 1017.9 hPa | - | - | - | - |
| 1777704302 | 13.33° C | 58% | 1018 hPa | - | - | - | - |
| 1777703402 | 13.33° C | 58% | 1018 hPa | - | - | - | - |
| 1777702502 | 12.22° C | 62% | 1018.1 hPa | - | - | - | - |
* Rain since midnight (hover to see other rain measurements)
** Current wind speed in m/s (hover to see current wind gust speed)